createdAt,value
2022-11-28T00:03:07.048Z,6.18
2022-11-28T00:08:08.539Z,6.18
2022-11-28T00:13:09.902Z,6.16
2022-11-28T00:18:11.338Z,6.08
2022-11-28T00:23:12.666Z,6.13
2022-11-28T00:28:14.022Z,6.11
2022-11-28T00:33:15.344Z,6.12
2022-11-28T00:38:16.741Z,6.07
2022-11-28T00:43:18.253Z,6.08
2022-11-28T00:48:19.597Z,6.04
2022-11-28T00:53:20.981Z,5.98
2022-11-28T00:58:22.321Z,5.99
2022-11-28T01:03:23.647Z,5.95
2022-11-28T01:08:24.967Z,5.89
2022-11-28T01:13:26.330Z,5.83
2022-11-28T01:18:27.689Z,5.76
2022-11-28T01:23:28.998Z,5.74
2022-11-28T01:28:30.419Z,5.66
2022-11-28T01:33:31.979Z,5.53
2022-11-28T01:38:33.769Z,5.43
2022-11-28T01:43:35.774Z,5.33
2022-11-28T01:48:39.630Z,5.23
2022-11-28T01:53:42.908Z,5.12
2022-11-28T01:58:46.527Z,4.98
2022-11-28T02:03:49.582Z,4.92
2022-11-28T02:08:52.379Z,4.94
2022-11-28T02:14:05.725Z,4.98
2022-11-28T02:19:13.094Z,4.93
2022-11-28T02:24:28.788Z,4.90
2022-11-28T02:29:35.869Z,4.90
2022-11-28T02:34:47.272Z,4.92
2022-11-28T02:40:07.389Z,4.89
2022-11-28T02:45:20.307Z,4.89
2022-11-28T02:50:34.615Z,4.91
2022-11-28T02:55:40.247Z,4.93
2022-11-28T03:00:46.236Z,4.93
2022-11-28T03:05:52.470Z,4.93
2022-11-28T03:11:02.960Z,4.96
2022-11-28T03:16:13.518Z,5.03
2022-11-28T03:21:22.362Z,5.01
2022-11-28T03:26:27.931Z,4.96
2022-11-28T03:31:49.548Z,5.00
2022-11-28T03:36:53.804Z,5.01
2022-11-28T03:41:58.954Z,4.97
2022-11-28T03:47:00.830Z,4.97
2022-11-28T03:52:04.130Z,5.01
2022-11-28T03:57:14.527Z,4.97
2022-11-28T04:02:22.069Z,5.02
2022-11-28T04:07:23.408Z,5.04
2022-11-28T04:12:37.545Z,4.98
2022-11-28T04:17:46.751Z,5.01
2022-11-28T04:22:50.961Z,5.07
2022-11-28T04:27:56.745Z,5.08
2022-11-28T04:33:01.093Z,5.10
2022-11-28T04:38:04.079Z,5.09
2022-11-28T04:43:10.686Z,5.08
2022-11-28T04:48:12.211Z,5.09
2022-11-28T04:53:18.618Z,5.03
2022-11-28T04:58:26.448Z,5.06
2022-11-28T05:03:28.348Z,5.02
2022-11-28T05:08:29.689Z,5.13
2022-11-28T05:13:31.009Z,5.15
2022-11-28T05:18:32.341Z,5.20
2022-11-28T05:23:33.650Z,5.13
2022-11-28T05:28:35.081Z,5.12
2022-11-28T05:33:36.482Z,5.13
2022-11-28T05:38:38.110Z,5.18
2022-11-28T05:43:39.430Z,5.18
2022-11-28T05:48:40.958Z,5.18
2022-11-28T05:53:42.393Z,5.13
2022-11-28T05:58:43.786Z,5.12
2022-11-28T06:03:45.604Z,5.15
2022-11-28T06:08:47.747Z,5.14
2022-11-28T06:13:49.512Z,5.16
2022-11-28T06:18:54.733Z,5.14
2022-11-28T06:23:56.993Z,5.12
2022-11-28T06:28:58.431Z,5.12
2022-11-28T06:33:59.775Z,5.17
2022-11-28T06:39:01.077Z,5.22
2022-11-28T06:44:02.425Z,5.17
2022-11-28T06:49:04.158Z,5.16
2022-11-28T06:54:06.091Z,5.15
2022-11-28T06:59:07.715Z,5.16
2022-11-28T07:04:10.101Z,5.14
2022-11-28T07:09:11.603Z,5.02
2022-11-28T07:14:12.921Z,4.78
2022-11-28T07:19:14.563Z,4.64
2022-11-28T07:24:16.822Z,4.61
2022-11-28T07:29:18.486Z,4.59
2022-11-28T07:34:19.841Z,4.63
2022-11-28T07:39:21.194Z,4.67
2022-11-28T07:44:22.530Z,4.72
2022-11-28T07:49:23.853Z,4.77
2022-11-28T07:54:25.182Z,4.78
2022-11-28T07:59:26.506Z,4.83
2022-11-28T08:04:27.891Z,4.85
2022-11-28T08:09:30.662Z,4.91
2022-11-28T08:14:31.986Z,5.03
2022-11-28T08:19:35.372Z,5.09
2022-11-28T08:24:38.776Z,5.21
2022-11-28T08:29:40.433Z,5.25
2022-11-28T08:34:42.172Z,5.29
2022-11-28T08:39:43.823Z,5.36
2022-11-28T08:44:45.321Z,5.37
2022-11-28T08:49:46.734Z,5.43
2022-11-28T08:54:48.085Z,5.44
2022-11-28T08:59:49.394Z,5.49
2022-11-28T09:04:50.719Z,5.51
2022-11-28T09:09:52.037Z,5.60
2022-11-28T09:14:53.370Z,5.64
2022-11-28T09:19:54.708Z,5.76
2022-11-28T09:24:56.022Z,5.82
2022-11-28T09:29:57.316Z,5.90
2022-11-28T09:34:58.639Z,5.89
2022-11-28T09:40:13.325Z,5.98
2022-11-28T09:45:17.344Z,5.96
2022-11-28T09:50:21.325Z,5.93
2022-11-28T09:55:22.557Z,5.97
2022-11-28T10:00:29.008Z,5.94
2022-11-28T10:05:43.692Z,6.01
2022-11-28T10:10:55.377Z,6.02
2022-11-28T10:16:06.172Z,5.95
2022-11-28T10:21:18.113Z,5.88
2022-11-28T10:26:29.078Z,5.74
2022-11-28T10:31:35.203Z,5.64
2022-11-28T10:36:45.455Z,5.60
2022-11-28T10:42:11.546Z,5.52
2022-11-28T10:47:19.636Z,5.50
2022-11-28T10:52:23.686Z,5.50
2022-11-28T10:57:31.417Z,5.47
2022-11-28T11:02:38.367Z,5.56
2022-11-28T11:07:43.689Z,5.61
2022-11-28T11:12:45.478Z,5.69
2022-11-28T11:17:46.900Z,5.63
2022-11-28T11:22:55.886Z,5.63
2022-11-28T11:28:02.463Z,5.66
2022-11-28T11:33:05.583Z,5.73
2022-11-28T11:38:17.799Z,5.72
2022-11-28T11:43:22.201Z,5.77
2022-11-28T11:48:34.164Z,5.79
2022-11-28T11:53:35.522Z,5.82
2022-11-28T11:58:43.371Z,5.78
2022-11-28T12:03:53.256Z,5.82
2022-11-28T12:09:02.743Z,5.91
2022-11-28T12:14:24.316Z,5.98
2022-11-28T12:19:25.661Z,6.06
2022-11-28T12:24:33.335Z,5.98
2022-11-28T12:29:43.942Z,6.03
2022-11-28T12:35:04.707Z,6.07
2022-11-28T12:40:27.486Z,6.14
2022-11-28T12:45:40.611Z,6.11
2022-11-28T12:50:44.068Z,6.11
2022-11-28T12:55:48.156Z,6.23
2022-11-28T13:01:05.546Z,6.23
2022-11-28T13:06:16.443Z,6.17
2022-11-28T13:11:23.798Z,6.19
2022-11-28T13:16:27.171Z,6.21
2022-11-28T13:21:41.086Z,6.26
2022-11-28T13:26:59.090Z,6.27
2022-11-28T13:32:08.176Z,6.23
2022-11-28T13:48:20.383Z,6.35
2022-11-28T13:53:23.557Z,6.38
2022-11-28T13:58:28.338Z,6.51
2022-11-28T14:03:31.306Z,6.54
2022-11-28T14:08:35.591Z,6.54
2022-11-28T14:13:36.876Z,6.53
2022-11-28T14:18:57.785Z,6.52
2022-11-28T14:24:25.209Z,6.53
2022-11-28T14:29:30.802Z,6.56
2022-11-28T14:34:36.951Z,6.56
2022-11-28T14:39:38.302Z,6.60
2022-11-28T14:44:50.529Z,6.60
2022-11-28T14:50:04.202Z,6.64
2022-11-28T14:55:25.979Z,6.71
2022-11-28T15:00:47.843Z,6.70
2022-11-28T15:05:53.797Z,6.72
2022-11-28T15:11:00.859Z,6.72
2022-11-28T15:16:07.076Z,6.72
2022-11-28T15:21:13.004Z,6.74
2022-11-28T15:26:22.882Z,6.73
2022-11-28T15:31:24.365Z,6.72
2022-11-28T15:36:27.435Z,6.74
2022-11-28T15:41:28.814Z,6.73
2022-11-28T15:46:31.339Z,6.75
2022-11-28T15:51:35.668Z,6.73
2022-11-28T15:56:37.970Z,6.71
2022-11-28T16:01:40.553Z,6.68
2022-11-28T16:06:44.053Z,6.69
2022-11-28T16:11:47.790Z,6.68
2022-11-28T16:16:49.440Z,6.69
2022-11-28T16:21:53.801Z,6.65
2022-11-28T16:27:00.195Z,6.66
2022-11-28T16:32:21.814Z,6.73
2022-11-28T16:37:25.360Z,6.71
2022-11-28T16:42:26.866Z,6.74
2022-11-28T16:47:30.295Z,6.77
2022-11-28T16:52:31.693Z,6.76
2022-11-28T16:57:44.845Z,6.76
2022-11-28T17:02:46.192Z,6.75
2022-11-28T17:07:47.510Z,6.73
2022-11-28T17:12:48.819Z,6.74
2022-11-28T17:17:50.281Z,6.81
2022-11-28T17:22:54.151Z,6.74
2022-11-28T17:27:55.448Z,6.72
2022-11-28T17:32:56.759Z,6.73
2022-11-28T17:37:58.125Z,6.77
2022-11-28T17:42:59.998Z,6.73
2022-11-28T17:48:01.321Z,6.70
2022-11-28T17:53:02.636Z,6.63
2022-11-28T17:58:03.959Z,6.61
2022-11-28T18:03:05.283Z,6.57
2022-11-28T18:08:06.748Z,6.53
2022-11-28T18:13:09.652Z,6.52
2022-11-28T18:18:11.030Z,6.47
2022-11-28T18:23:12.621Z,6.42
2022-11-28T18:28:18.581Z,6.43
2022-11-28T18:33:20.516Z,6.33
2022-11-28T18:38:21.971Z,6.34
2022-11-28T18:43:23.296Z,6.30
2022-11-28T18:48:24.638Z,6.28
2022-11-28T18:53:25.937Z,6.23
2022-11-28T18:58:27.309Z,6.19
2022-11-28T19:03:28.617Z,6.15
2022-11-28T19:08:29.929Z,6.06
2022-11-28T19:13:31.287Z,6.06
2022-11-28T19:18:32.751Z,6.08
2022-11-28T19:23:34.129Z,6.04
2022-11-28T19:28:36.313Z,5.96
2022-11-28T19:33:37.707Z,5.95
2022-11-28T19:38:39.432Z,5.91
2022-11-28T19:43:41.505Z,5.95
2022-11-28T19:48:42.934Z,5.91
2022-11-28T19:53:44.521Z,5.95
2022-11-28T19:58:47.171Z,5.99
2022-11-28T20:03:49.101Z,5.96
2022-11-28T20:08:51.178Z,5.88
2022-11-28T20:14:03.270Z,5.84
2022-11-28T20:19:05.647Z,5.80
2022-11-28T20:24:08.210Z,5.70
2022-11-28T20:29:12.095Z,5.60
2022-11-28T20:34:14.086Z,5.56
2022-11-28T20:39:15.524Z,5.50
2022-11-28T20:44:18.279Z,5.48
2022-11-28T20:49:19.717Z,5.45
2022-11-28T20:54:21.037Z,5.42
2022-11-28T20:59:22.456Z,5.43
2022-11-28T21:04:23.827Z,5.41
2022-11-28T21:09:25.203Z,5.43
2022-11-28T21:14:27.369Z,5.38
2022-11-28T21:19:28.682Z,5.30
2022-11-28T21:24:30.078Z,5.28
2022-11-28T21:29:31.436Z,5.39
2022-11-28T21:34:33.806Z,5.49
2022-11-28T21:39:35.134Z,5.44
2022-11-28T21:44:36.487Z,5.51
2022-11-28T21:49:37.806Z,5.54
2022-11-28T21:54:39.164Z,5.55
2022-11-28T21:59:40.494Z,5.55
2022-11-28T22:04:42.589Z,5.53
2022-11-28T22:09:44.192Z,5.57
2022-11-28T22:14:46.137Z,5.58
2022-11-28T22:19:47.817Z,5.57
2022-11-28T22:24:49.455Z,5.53
2022-11-28T22:29:50.985Z,5.57
2022-11-28T22:34:52.304Z,5.58
2022-11-28T22:39:53.612Z,5.63
2022-11-28T22:44:54.987Z,5.62
2022-11-28T22:49:56.305Z,5.61
2022-11-28T22:54:57.618Z,5.63
2022-11-28T22:59:58.921Z,5.64
2022-11-28T23:05:00.374Z,5.60
2022-11-28T23:10:02.100Z,5.69
2022-11-28T23:15:03.727Z,5.67
2022-11-28T23:20:05.373Z,5.67
2022-11-28T23:25:07.040Z,5.72
2022-11-28T23:30:08.539Z,5.78
2022-11-28T23:35:09.876Z,5.75
2022-11-28T23:40:11.474Z,5.73
2022-11-28T23:45:12.949Z,5.86
2022-11-28T23:50:14.573Z,5.72
2022-11-28T23:55:16.044Z,5.68
